createdAt,value
2015-11-08T00:00:07.360Z,98.21
2015-11-08T00:00:20.473Z,98.21
2015-11-08T00:00:33.718Z,98.25
2015-11-08T00:00:46.936Z,97.78
2015-11-08T00:01:00.155Z,97.88
2015-11-08T00:01:13.218Z,98.02
2015-11-08T00:01:26.438Z,97.78
2015-11-08T00:01:39.657Z,97.88
2015-11-08T00:01:52.891Z,98.25
2015-11-08T00:02:06.126Z,98.25
2015-11-08T00:02:19.376Z,97.92
2015-11-08T00:02:32.629Z,98.25
2015-11-08T00:02:45.723Z,98.07
2015-11-08T00:02:58.957Z,98.35
2015-11-08T00:03:12.019Z,98.39
2015-11-08T00:03:25.257Z,98.44
2015-11-08T00:03:38.476Z,98.44
2015-11-08T00:03:51.741Z,98.3
2015-11-08T00:04:04.991Z,98.44
2015-11-08T00:04:18.288Z,98.25
2015-11-08T00:04:31.510Z,98.35
2015-11-08T00:04:44.572Z,98.25
2015-11-08T00:04:57.807Z,98.35
2015-11-08T00:05:11.025Z,98.44
2015-11-08T00:05:24.107Z,98.35
2015-11-08T00:05:37.325Z,98.25
2015-11-08T00:05:50.560Z,98.25
2015-11-08T00:06:03.794Z,98.35
2015-11-08T00:06:17.075Z,98.35
2015-11-08T00:06:30.327Z,98.44
2015-11-08T00:06:43.530Z,98.39
2015-11-08T00:06:56.765Z,98.58
2015-11-08T00:07:09.999Z,98.92
2015-11-08T00:07:23.218Z,98.54
2015-11-08T00:07:36.268Z,98.92
2015-11-08T00:07:49.487Z,98.92
2015-11-08T00:08:02.721Z,98.58
2015-11-08T00:08:15.815Z,98.68
2015-11-08T00:08:29.082Z,98.87
2015-11-08T00:08:42.364Z,98.87
2015-11-08T00:08:55.582Z,99.11
2015-11-08T00:09:08.832Z,98.68
2015-11-08T00:09:22.051Z,98.3
2015-11-08T00:09:35.273Z,98.21
2015-11-08T00:09:48.492Z,98.73
2015-11-08T00:10:01.710Z,98.39
2015-11-08T00:10:14.960Z,98.11
2015-11-08T00:10:28.183Z,98.44
2015-11-08T00:10:41.417Z,98.11
2015-11-08T00:10:54.699Z,98.39
2015-11-08T00:11:07.933Z,98.35
2015-11-08T00:11:21.152Z,98.58
2015-11-08T00:11:34.373Z,98.25
2015-11-08T00:11:47.591Z,98.21
2015-11-08T00:12:00.826Z,98.02
2015-11-08T00:12:14.076Z,97.92
2015-11-08T00:12:27.341Z,98.25
2015-11-08T00:12:40.609Z,98.21
2015-11-08T00:12:53.828Z,97.88
2015-11-08T00:13:07.062Z,98.07
2015-11-08T00:13:20.296Z,98.02
2015-11-08T00:13:33.534Z,98.07
2015-11-08T00:13:46.784Z,98.25
2015-11-08T00:14:00.018Z,98.3
2015-11-08T00:14:13.284Z,98.35
2015-11-08T00:14:26.549Z,98.02
2015-11-08T00:14:39.834Z,98.11
2015-11-08T00:14:53.052Z,97.64
2015-11-08T00:15:06.271Z,97.83
2015-11-08T00:15:19.506Z,98.21
2015-11-08T00:15:32.727Z,98.02
2015-11-08T00:15:45.962Z,97.92
2015-11-08T00:15:59.165Z,97.97
2015-11-08T00:16:12.415Z,98.02
2015-11-08T00:16:25.665Z,98.25
2015-11-08T00:16:38.902Z,98.39
2015-11-08T00:16:52.168Z,98.82
2015-11-08T00:17:05.418Z,99.11
2015-11-08T00:17:18.652Z,98.96
2015-11-08T00:17:31.887Z,99.25
2015-11-08T00:17:45.107Z,99.34
2015-11-08T00:17:58.326Z,99.34
2015-11-08T00:18:11.545Z,99.49
2015-11-08T00:18:24.795Z,99.2
2015-11-08T00:18:38.033Z,99.34
2015-11-08T00:18:51.127Z,99.49
2015-11-08T00:19:04.377Z,98.73
2015-11-08T00:19:17.596Z,99.11
2015-11-08T00:19:30.814Z,99.2
2015-11-08T00:19:44.035Z,99.2
2015-11-08T00:19:57.254Z,99.25
2015-11-08T00:20:10.473Z,98.77
2015-11-08T00:20:23.707Z,99.11
2015-11-08T00:20:36.976Z,98.92
2015-11-08T00:20:50.210Z,98.96
2015-11-08T00:21:03.476Z,99.3
2015-11-08T00:21:16.741Z,99.44
2015-11-08T00:21:29.991Z,99.63
2015-11-08T00:21:43.212Z,99.44
2015-11-08T00:21:56.431Z,99.15
2015-11-08T00:22:09.650Z,99.3
2015-11-08T00:22:22.884Z,99.25
2015-11-08T00:22:36.103Z,99.01
2015-11-08T00:22:49.356Z,98.87
2015-11-08T00:23:02.590Z,98.82
2015-11-08T00:23:15.840Z,99.39
2015-11-08T00:23:29.606Z,99.58
2015-11-08T00:23:42.832Z,98.63
2015-11-08T00:23:56.067Z,99.25
2015-11-08T00:24:09.301Z,99.25
2015-11-08T00:24:22.536Z,99.15
2015-11-08T00:24:35.739Z,98.92
2015-11-08T00:24:48.991Z,99.06
2015-11-08T00:25:02.069Z,99.34
2015-11-08T00:25:15.334Z,98.87
2015-11-08T00:25:28.600Z,98.87
2015-11-08T00:25:41.869Z,98.77
2015-11-08T00:25:55.119Z,99.15
2015-11-08T00:26:08.337Z,99.25
2015-11-08T00:26:21.572Z,98.58
2015-11-08T00:26:34.791Z,98.68
2015-11-08T00:26:48.011Z,98.87
2015-11-08T00:27:01.230Z,99.53
2015-11-08T00:27:14.464Z,99.53
2015-11-08T00:27:27.714Z,99.53
2015-11-08T00:27:40.983Z,99.53
2015-11-08T00:27:54.233Z,99.44
2015-11-08T00:28:07.499Z,99.44
2015-11-08T00:28:20.717Z,99.72
2015-11-08T00:28:33.952Z,99.44
2015-11-08T00:28:47.174Z,99.44
2015-11-08T00:29:00.408Z,99.44
2015-11-08T00:29:13.627Z,99.91
2015-11-08T00:29:26.861Z,99.91
2015-11-08T00:29:40.111Z,99.63
2015-11-08T00:29:53.348Z,99.53
2015-11-08T00:30:06.583Z,99.44
2015-11-08T00:30:19.802Z,99.63
2015-11-08T00:30:33.020Z,99.44
2015-11-08T00:30:46.242Z,99.63
2015-11-08T00:30:59.461Z,98.92
2015-11-08T00:31:12.711Z,98.77
2015-11-08T00:31:25.945Z,98.82
2015-11-08T00:31:39.226Z,99.49
2015-11-08T00:31:52.494Z,99.34
2015-11-08T00:32:05.760Z,98.87
2015-11-08T00:32:18.994Z,99.2
2015-11-08T00:32:32.213Z,99.39
2015-11-08T00:32:45.435Z,99.2
2015-11-08T00:32:58.653Z,98.68
2015-11-08T00:33:11.888Z,99.3
2015-11-08T00:33:25.091Z,98.54
2015-11-08T00:33:38.341Z,98.77
2015-11-08T00:33:51.594Z,99.39
2015-11-08T00:34:04.859Z,99.25
2015-11-08T00:34:18.125Z,99.3
2015-11-08T00:34:30.484Z,98.87
2015-11-08T00:34:43.721Z,98.87
2015-11-08T00:34:56.955Z,99.06
2015-11-08T00:35:10.174Z,99.25
2015-11-08T00:35:23.424Z,99.25
2015-11-08T00:35:36.643Z,99.06
2015-11-08T00:35:49.880Z,99.15
2015-11-08T00:36:03.114Z,98.77
2015-11-08T00:36:16.380Z,98.68
2015-11-08T00:36:29.630Z,98.63
2015-11-08T00:36:42.943Z,98.68
2015-11-08T00:36:56.196Z,98.58
2015-11-08T00:37:09.414Z,99.01
2015-11-08T00:37:22.649Z,98.87
2015-11-08T00:37:35.867Z,98.87
2015-11-08T00:37:49.088Z,99.01
2015-11-08T00:38:02.307Z,98.77
2015-11-08T00:38:15.541Z,98.96
2015-11-08T00:38:28.760Z,98.68
2015-11-08T00:38:42.010Z,98.3
2015-11-08T00:38:55.263Z,98.87
2015-11-08T00:39:08.529Z,98.35
2015-11-08T00:39:21.747Z,98.44
2015-11-08T00:39:34.982Z,98.21
2015-11-08T00:39:48.204Z,98.58
2015-11-08T00:40:01.422Z,98.3
2015-11-08T00:40:14.500Z,98.39
2015-11-08T00:40:27.704Z,98.35
2015-11-08T00:40:40.954Z,98.3
2015-11-08T00:40:54.175Z,98.44
2015-11-08T00:41:07.269Z,98.63
2015-11-08T00:41:20.535Z,98.58
2015-11-08T00:41:33.753Z,98.39
2015-11-08T00:41:46.988Z,98.44
2015-11-08T00:42:00.210Z,98.39
2015-11-08T00:42:13.413Z,98.39
2015-11-08T00:42:26.647Z,98.44
2015-11-08T00:42:39.866Z,98.39
2015-11-08T00:42:53.118Z,98.21
2015-11-08T00:43:06.352Z,98.11
2015-11-08T00:43:19.602Z,98.58
2015-11-08T00:43:32.868Z,98.11
2015-11-08T00:43:46.087Z,98.11
2015-11-08T00:43:59.308Z,98.21
2015-11-08T00:44:12.527Z,98.21
2015-11-08T00:44:25.746Z,98.16
2015-11-08T00:44:38.965Z,98.02
2015-11-08T00:44:52.202Z,97.92
2015-11-08T00:45:05.452Z,98.21
2015-11-08T00:45:18.686Z,98.21
2015-11-08T00:45:31.968Z,97.83
2015-11-08T00:45:45.233Z,97.88
2015-11-08T00:45:58.471Z,97.88
2015-11-08T00:46:11.689Z,97.88
2015-11-08T00:46:24.908Z,97.92
2015-11-08T00:46:38.189Z,97.88
2015-11-08T00:46:51.408Z,97.83
2015-11-08T00:47:04.630Z,97.97
2015-11-08T00:47:17.708Z,97.97
2015-11-08T00:47:30.958Z,97.73
2015-11-08T00:47:44.208Z,97.83
2015-11-08T00:47:57.476Z,97.64
2015-11-08T00:48:10.741Z,97.73
2015-11-08T00:48:23.960Z,97.83
2015-11-08T00:48:37.179Z,97.73
2015-11-08T00:48:50.397Z,98.16
2015-11-08T00:49:03.618Z,97.64
2015-11-08T00:49:16.837Z,97.92
2015-11-08T00:49:30.071Z,98.11
2015-11-08T00:49:43.306Z,97.92
2015-11-08T00:49:56.544Z,97.83
2015-11-08T00:50:09.794Z,97.64
2015-11-08T00:50:23.075Z,97.92
2015-11-08T00:50:36.294Z,98.02
2015-11-08T00:50:49.528Z,97.83
2015-11-08T00:51:02.780Z,97.73
2015-11-08T00:51:16.015Z,98.02
2015-11-08T00:51:29.249Z,97.83
2015-11-08T00:51:42.484Z,98.21
2015-11-08T00:51:55.702Z,98.21
2015-11-08T00:52:08.939Z,98.21
2015-11-08T00:52:22.204Z,98.21
2015-11-08T00:52:35.423Z,98.21
2015-11-08T00:52:48.642Z,98.21
2015-11-08T00:53:01.880Z,98.21
2015-11-08T00:53:15.099Z,98.21
2015-11-08T00:53:28.349Z,98.02
2015-11-08T00:53:41.583Z,98.11
2015-11-08T00:53:54.865Z,98.21
2015-11-08T00:54:08.132Z,98.02
2015-11-08T00:54:21.351Z,98.21
2015-11-08T00:54:34.585Z,97.64
2015-11-08T00:54:47.804Z,97.73
2015-11-08T00:55:01.041Z,97.73
2015-11-08T00:55:14.260Z,97.92
2015-11-08T00:55:27.495Z,97.26
2015-11-08T00:55:40.729Z,97.54
2015-11-08T00:55:53.963Z,97.45
2015-11-08T00:56:07.232Z,97.35
2015-11-08T00:56:20.498Z,97.83
2015-11-08T00:56:33.638Z,97.83
2015-11-08T00:56:46.701Z,97.73
2015-11-08T00:56:59.919Z,97.64
2015-11-08T00:57:13.140Z,97.92
2015-11-08T00:57:26.375Z,97.26
2015-11-08T00:57:39.609Z,97.54
2015-11-08T00:57:52.828Z,97.83
2015-11-08T00:58:06.065Z,97.73
2015-11-08T00:58:19.299Z,97.54
2015-11-08T00:58:32.565Z,97.54
2015-11-08T00:58:45.831Z,97.54
2015-11-08T00:58:59.081Z,97.64
2015-11-08T00:59:12.395Z,97.45
2015-11-08T00:59:25.614Z,97.45
2015-11-08T00:59:38.833Z,97.54
2015-11-08T00:59:52.051Z,97.45
2015-11-08T01:00:05.290Z,97.73
2015-11-08T01:00:18.524Z,97.54
2015-11-08T01:00:31.759Z,97.64
2015-11-08T01:00:44.993Z,97.54
2015-11-08T01:00:58.259Z,97.54
2015-11-08T01:01:11.511Z,97.07
2015-11-08T01:01:24.761Z,96.97
2015-11-08T01:01:37.979Z,97.16
2015-11-08T01:01:51.198Z,97.26
2015-11-08T01:02:04.417Z,97.16
2015-11-08T01:02:17.639Z,97.16
2015-11-08T01:02:30.857Z,97.16
2015-11-08T01:02:44.092Z,97.16
2015-11-08T01:02:57.326Z,97.26
2015-11-08T01:03:10.610Z,97.16
2015-11-08T01:03:23.860Z,97.16
2015-11-08T01:03:37.079Z,97.26
2015-11-08T01:03:50.313Z,96.97
2015-11-08T01:04:03.532Z,97.07
2015-11-08T01:04:16.769Z,97.16
2015-11-08T01:04:29.972Z,97.35
2015-11-08T01:04:43.206Z,97.16
2015-11-08T01:04:56.440Z,97.07
2015-11-08T01:05:09.693Z,97.35
2015-11-08T01:05:22.943Z,97.07
2015-11-08T01:05:36.209Z,96.97
2015-11-08T01:05:49.412Z,97.07
2015-11-08T01:06:01.912Z,96.97
2015-11-08T01:06:15.118Z,97.16
2015-11-08T01:06:28.337Z,97.07
2015-11-08T01:06:41.587Z,97.07
2015-11-08T01:06:54.806Z,97.35
2015-11-08T01:07:08.025Z,97.26
2015-11-08T01:07:21.278Z,96.88
2015-11-08T01:07:34.528Z,97.73
2015-11-08T01:07:47.793Z,97.73
2015-11-08T01:08:01.090Z,97.73
2015-11-08T01:08:14.311Z,97.16
2015-11-08T01:08:27.530Z,96.97
2015-11-08T01:08:40.780Z,96.88
2015-11-08T01:08:53.998Z,97.07
2015-11-08T01:09:07.233Z,96.88
2015-11-08T01:09:20.470Z,97.07
2015-11-08T01:09:33.736Z,96.97
2015-11-08T01:09:47.001Z,97.16
2015-11-08T01:10:00.220Z,97.35
2015-11-08T01:10:13.456Z,96.97
2015-11-08T01:10:26.691Z,96.97
2015-11-08T01:10:39.910Z,97.07
2015-11-08T01:10:53.144Z,97.07
2015-11-08T01:11:06.363Z,97.07
2015-11-08T01:11:19.600Z,96.88
2015-11-08T01:11:32.834Z,96.97
2015-11-08T01:11:46.100Z,97.54
2015-11-08T01:11:59.350Z,97.73
2015-11-08T01:12:12.569Z,97.64
2015-11-08T01:12:25.791Z,97.64
2015-11-08T01:12:39.009Z,97.54
2015-11-08T01:12:52.228Z,97.07
2015-11-08T01:13:05.447Z,96.88
2015-11-08T01:13:18.669Z,97.26
2015-11-08T01:13:31.903Z,97.26
2015-11-08T01:13:45.153Z,97.16
2015-11-08T01:13:58.403Z,97.54
2015-11-08T01:14:11.669Z,97.54
2015-11-08T01:14:24.890Z,97.26
2015-11-08T01:14:38.109Z,97.16
2015-11-08T01:14:51.343Z,97.16
2015-11-08T01:15:04.562Z,97.54
2015-11-08T01:15:17.784Z,97.73
2015-11-08T01:15:30.846Z,97.73
2015-11-08T01:15:44.081Z,97.73
2015-11-08T01:15:57.331Z,97.64
2015-11-08T01:16:10.581Z,97.54
2015-11-08T01:16:23.880Z,97.54
2015-11-08T01:16:37.098Z,97.64
2015-11-08T01:16:50.177Z,97.54
2015-11-08T01:17:03.395Z,97.54
2015-11-08T01:17:16.614Z,97.54
2015-11-08T01:17:29.851Z,97.54
2015-11-08T01:17:43.086Z,97.64
2015-11-08T01:17:56.383Z,97.64
2015-11-08T01:18:09.617Z,97.35
2015-11-08T01:18:22.886Z,97.54
2015-11-08T01:18:36.136Z,97.54
2015-11-08T01:18:49.339Z,97.45
2015-11-08T01:19:02.558Z,97.35
2015-11-08T01:19:15.776Z,97.54
2015-11-08T01:19:29.013Z,97.83
2015-11-08T01:19:42.247Z,97.92
2015-11-08T01:19:55.497Z,97.83
2015-11-08T01:20:08.778Z,97.35
2015-11-08T01:20:22.000Z,97.26
2015-11-08T01:20:35.219Z,97.26
2015-11-08T01:20:48.453Z,97.54
2015-11-08T01:21:01.688Z,97.54
2015-11-08T01:21:14.906Z,97.73
2015-11-08T01:21:28.128Z,97.16
2015-11-08T01:21:41.394Z,97.35
2015-11-08T01:21:54.628Z,97.54
2015-11-08T01:22:07.878Z,97.45
2015-11-08T01:22:21.128Z,97.54
2015-11-08T01:22:34.350Z,97.54
2015-11-08T01:23:09.147Z,96.97
2015-11-08T01:23:22.397Z,97.07
2015-11-08T01:23:35.634Z,96.97
2015-11-08T01:23:48.868Z,96.78
2015-11-08T01:24:02.118Z,96.88
2015-11-08T01:24:15.400Z,96.22
2015-11-08T01:24:28.667Z,96.5
2015-11-08T01:24:41.933Z,96.03
2015-11-08T01:24:55.199Z,96.41
2015-11-08T01:25:08.417Z,96.22
2015-11-08T01:25:21.636Z,95.93
2015-11-08T01:25:34.851Z,96.03
2015-11-08T01:25:48.101Z,96.03
2015-11-08T01:26:01.320Z,96.41
2015-11-08T01:26:14.538Z,96.03
2015-11-08T01:26:27.759Z,96.12
2015-11-08T01:26:41.024Z,96.03
2015-11-08T01:26:54.274Z,95.74
2015-11-08T01:27:07.493Z,96.03
2015-11-08T01:27:20.712Z,95.17
2015-11-08T01:27:33.964Z,94.89
2015-11-08T01:27:47.199Z,94.51
2015-11-08T01:28:00.418Z,94.23
2015-11-08T01:28:13.636Z,94.32
2015-11-08T01:28:26.871Z,94.23
2015-11-08T01:28:40.107Z,93.65
2015-11-08T01:28:53.372Z,93.37
2015-11-08T01:29:06.638Z,93.65
2015-11-08T01:29:19.872Z,93.75
2015-11-08T01:29:33.078Z,93.27
2015-11-08T01:29:46.297Z,93.08
2015-11-08T01:29:59.516Z,93.18
2015-11-08T01:30:12.750Z,92.61
2015-11-08T01:30:25.969Z,92.8
2015-11-08T01:30:39.193Z,92.71
2015-11-08T01:30:52.443Z,92.99
2015-11-08T01:31:05.677Z,92.71
2015-11-08T01:31:18.943Z,92.8
2015-11-08T01:31:32.191Z,92.52
2015-11-08T01:31:45.425Z,92.42
2015-11-08T01:31:58.629Z,92.52
2015-11-08T01:32:11.847Z,92.42
2015-11-08T01:32:25.082Z,92.61
2015-11-08T01:32:38.296Z,92.61
2015-11-08T01:32:51.546Z,92.8
2015-11-08T01:33:04.781Z,92.23
2015-11-08T01:33:18.015Z,92.23
2015-11-08T01:33:31.296Z,92.04
2015-11-08T01:33:44.527Z,91.76
2015-11-08T01:33:57.746Z,90.81
2015-11-08T01:34:10.980Z,90.24
2015-11-08T01:34:24.199Z,89.86
2015-11-08T01:34:37.446Z,89.77
2015-11-08T01:34:50.524Z,89.67
2015-11-08T01:35:03.789Z,89.48
2015-11-08T01:35:17.039Z,89.01
2015-11-08T01:35:30.305Z,88.73
2015-11-08T01:35:43.538Z,88.92
2015-11-08T01:35:56.742Z,88.73
2015-11-08T01:36:09.960Z,88.73
2015-11-08T01:36:23.179Z,89.2
2015-11-08T01:36:36.414Z,89.2
2015-11-08T01:36:49.633Z,88.54
2015-11-08T01:37:02.883Z,88.73
2015-11-08T01:37:16.118Z,89.01
2015-11-08T01:37:29.383Z,89.58
2015-11-08T01:37:42.664Z,89.39
2015-11-08T01:37:55.883Z,88.82
2015-11-08T01:38:09.102Z,88.63
2015-11-08T01:38:22.321Z,88.63
2015-11-08T01:38:35.524Z,88.54
2015-11-08T01:38:48.728Z,88.63
2015-11-08T01:39:01.931Z,88.92
2015-11-08T01:39:15.040Z,88.63
2015-11-08T01:39:28.275Z,88.63
2015-11-08T01:39:41.526Z,88.54
2015-11-08T01:39:54.745Z,87.77
2015-11-08T01:40:07.963Z,86.93
2015-11-08T01:40:21.198Z,87.4
2015-11-08T01:40:34.416Z,87.77
2015-11-08T01:40:47.652Z,87.77
2015-11-08T01:41:00.902Z,87.02
2015-11-08T01:41:13.996Z,87.21
2015-11-08T01:41:27.261Z,86.74
2015-11-08T01:41:40.498Z,86.45
2015-11-08T01:41:53.716Z,85.69
2015-11-08T01:42:06.935Z,85.97
2015-11-08T01:42:20.185Z,85.78
2015-11-08T01:42:33.435Z,85.31
2015-11-08T01:42:46.671Z,85.97
2015-11-08T01:42:59.937Z,86.74
2015-11-08T01:43:13.203Z,86.64
2015-11-08T01:43:26.453Z,86.74
2015-11-08T01:43:39.673Z,86.74
2015-11-08T01:43:52.892Z,86.55
2015-11-08T01:44:06.111Z,86.74
2015-11-08T01:44:19.345Z,86.64
2015-11-08T01:44:32.580Z,86.83
2015-11-08T01:44:45.816Z,86.83
2015-11-08T01:44:59.050Z,87.3
2015-11-08T01:45:12.316Z,86.93
2015-11-08T01:45:25.582Z,86.93
2015-11-08T01:45:38.849Z,86.64
2015-11-08T01:45:52.099Z,87.12
2015-11-08T01:46:05.318Z,87.49
2015-11-08T01:46:18.552Z,87.49
2015-11-08T01:46:31.756Z,87.59
2015-11-08T01:46:44.977Z,88.16
2015-11-08T01:46:58.243Z,87.59
2015-11-08T01:47:11.462Z,87.3
2015-11-08T01:47:24.712Z,86.64
2015-11-08T01:47:37.946Z,86.35
2015-11-08T01:47:51.214Z,86.35
2015-11-08T01:48:04.479Z,85.6
2015-11-08T01:48:17.698Z,85.88
2015-11-08T01:48:30.917Z,85.88
2015-11-08T01:48:44.138Z,86.35
2015-11-08T01:48:57.356Z,86.83
2015-11-08T01:49:10.575Z,86.74
2015-11-08T01:49:23.809Z,86.83
2015-11-08T01:49:37.059Z,86.64
2015-11-08T01:49:50.297Z,86.74
2015-11-08T01:50:03.562Z,86.93
2015-11-08T01:50:16.812Z,86.83
2015-11-08T01:50:30.109Z,86.83
2015-11-08T01:50:43.346Z,86.74
2015-11-08T01:50:56.549Z,86.55
2015-11-08T01:51:09.783Z,86.07
2015-11-08T01:51:23.002Z,86.55
2015-11-08T01:51:36.236Z,86.64
2015-11-08T01:51:49.474Z,86.83
2015-11-08T01:52:02.692Z,86.64
2015-11-08T01:52:15.927Z,87.49
2015-11-08T01:52:29.192Z,87.4
2015-11-08T01:52:42.442Z,87.21
2015-11-08T01:52:55.694Z,87.3
2015-11-08T01:53:08.913Z,87.4
2015-11-08T01:53:22.148Z,87.49
2015-11-08T01:53:35.382Z,87.59
2015-11-08T01:53:48.604Z,88.16
2015-11-08T01:54:01.822Z,88.44
2015-11-08T01:54:15.041Z,87.87
2015-11-08T01:54:28.276Z,87.97
2015-11-08T01:54:41.526Z,87.77
2015-11-08T01:54:54.794Z,88.06
2015-11-08T01:55:08.294Z,87.87
2015-11-08T01:55:21.513Z,87.68
2015-11-08T01:55:34.747Z,87.68
2015-11-08T01:55:47.969Z,87.68
2015-11-08T01:56:01.203Z,87.97
2015-11-08T01:56:14.438Z,87.77
2015-11-08T01:56:27.688Z,87.3
2015-11-08T01:56:40.922Z,86.83
2015-11-08T01:56:54.160Z,86.35
2015-11-08T01:57:07.378Z,85.97
2015-11-08T01:57:20.613Z,85.88
2015-11-08T01:57:33.847Z,85.78
2015-11-08T01:57:47.081Z,85.88
2015-11-08T01:58:00.037Z,85.88
2015-11-08T01:58:13.302Z,85.97
2015-11-08T01:58:26.583Z,85.22
2015-11-08T01:58:39.802Z,85.13
2015-11-08T01:58:53.024Z,85.13
2015-11-08T01:59:06.243Z,85.5
2015-11-08T01:59:19.461Z,85.31
2015-11-08T01:59:32.680Z,85.78
2015-11-08T01:59:45.930Z,85.78
2015-11-08T01:59:59.183Z,85.97
2015-11-08T02:00:12.418Z,86.07
2015-11-08T02:00:25.683Z,85.88
2015-11-08T02:00:38.964Z,85.97
2015-11-08T02:00:52.186Z,85.88
2015-11-08T02:01:05.421Z,85.69
2015-11-08T02:01:18.655Z,85.6
2015-11-08T02:01:31.889Z,85.78
2015-11-08T02:01:45.108Z,85.69
2015-11-08T02:01:58.329Z,85.78
2015-11-08T02:02:11.563Z,85.88
2015-11-08T02:02:24.813Z,85.5
2015-11-08T02:02:38.079Z,85.41
2015-11-08T02:02:51.344Z,85.41
2015-11-08T02:03:04.596Z,85.88
2015-11-08T02:03:17.831Z,85.69
2015-11-08T02:03:31.050Z,86.26
2015-11-08T02:03:44.284Z,86.64
2015-11-08T02:03:57.506Z,87.3
2015-11-08T02:04:10.709Z,87.59
2015-11-08T02:04:23.928Z,87.87
2015-11-08T02:04:37.162Z,88.06
2015-11-08T02:04:50.396Z,88.16
2015-11-08T02:05:03.681Z,87.97
2015-11-08T02:05:16.946Z,88.82
2015-11-08T02:05:30.212Z,88.73
2015-11-08T02:05:43.290Z,88.54
2015-11-08T02:05:56.496Z,88.63
2015-11-08T02:06:09.730Z,88.82
2015-11-08T02:06:22.965Z,88.92
2015-11-08T02:06:36.199Z,88.82
2015-11-08T02:06:49.418Z,88.73
2015-11-08T02:07:02.655Z,89.01
2015-11-08T02:07:15.890Z,88.44
2015-11-08T02:07:29.155Z,88.16
2015-11-08T02:07:42.421Z,87.77
2015-11-08T02:07:55.655Z,88.16
2015-11-08T02:08:08.861Z,87.97
2015-11-08T02:08:22.096Z,88.06
2015-11-08T02:08:35.330Z,87.97
2015-11-08T02:08:48.565Z,88.16
2015-11-08T02:09:01.785Z,87.68
2015-11-08T02:09:15.020Z,87.87
2015-11-08T02:09:28.254Z,88.06
2015-11-08T02:09:41.363Z,87.97
2015-11-08T02:09:54.629Z,88.25
2015-11-08T02:10:07.898Z,87.87
2015-11-08T02:10:21.148Z,88.06
2015-11-08T02:10:34.382Z,88.82
2015-11-08T02:10:47.601Z,88.44
2015-11-08T02:11:00.822Z,88.44
2015-11-08T02:11:14.040Z,88.54
2015-11-08T02:11:27.259Z,88.82
2015-11-08T02:11:40.493Z,88.54
2015-11-08T02:11:53.572Z,88.92
2015-11-08T02:12:06.809Z,88.54
2015-11-08T02:12:20.075Z,88.44
2015-11-08T02:12:33.184Z,88.73
2015-11-08T02:12:46.418Z,88.73
2015-11-08T02:12:59.637Z,88.54
2015-11-08T02:13:12.843Z,88.44
2015-11-08T02:13:26.062Z,87.97
2015-11-08T02:13:39.265Z,88.25
2015-11-08T02:13:52.484Z,87.87
2015-11-08T02:14:05.720Z,87.68
2015-11-08T02:14:18.955Z,87.68
2015-11-08T02:14:32.205Z,87.77
2015-11-08T02:14:45.470Z,87.77
2015-11-08T02:14:58.736Z,87.68
2015-11-08T02:15:11.989Z,87.59
2015-11-08T02:15:25.208Z,87.59
2015-11-08T02:15:38.426Z,87.49
2015-11-08T02:15:51.645Z,87.59
2015-11-08T02:16:04.882Z,87.68
2015-11-08T02:16:18.132Z,87.49
2015-11-08T02:16:31.382Z,87.77
2015-11-08T02:16:44.648Z,87.87
2015-11-08T02:16:57.742Z,87.77
2015-11-08T02:17:10.978Z,87.87
2015-11-08T02:17:24.041Z,87.68
2015-11-08T02:17:37.275Z,87.77
2015-11-08T02:17:50.478Z,87.87
2015-11-08T02:18:03.713Z,87.87
2015-11-08T02:18:16.934Z,87.59
2015-11-08T02:18:30.169Z,87.3
2015-11-08T02:18:43.403Z,87.3
2015-11-08T02:18:56.669Z,87.3
2015-11-08T02:19:09.922Z,87.02
2015-11-08T02:19:23.156Z,87.49
2015-11-08T02:19:36.375Z,87.02
2015-11-08T02:19:49.594Z,86.83
2015-11-08T02:20:02.828Z,86.74
2015-11-08T02:20:16.050Z,85.5
2015-11-08T02:20:29.268Z,85.22
2015-11-08T02:20:42.503Z,84.55
2015-11-08T02:20:55.737Z,84.08
2015-11-08T02:21:09.006Z,83.98
2015-11-08T02:21:22.256Z,83.51
2015-11-08T02:21:35.490Z,83.61
2015-11-08T02:21:48.709Z,83.61
2015-11-08T02:22:01.928Z,83.8
2015-11-08T02:22:15.148Z,84.17
2015-11-08T02:22:28.227Z,83.98
2015-11-08T02:22:41.445Z,84.08
2015-11-08T02:22:54.680Z,84.27
2015-11-08T02:23:07.914Z,84.36
2015-11-08T02:23:21.184Z,84.46
2015-11-08T02:23:34.434Z,84.84
2015-11-08T02:23:47.684Z,84.74
2015-11-08T02:24:00.902Z,85.13
2015-11-08T02:24:14.154Z,84.94
2015-11-08T02:24:27.389Z,85.03
2015-11-08T02:24:40.623Z,85.41
2015-11-08T02:24:53.686Z,85.41
2015-11-08T02:25:06.920Z,84.74
2015-11-08T02:25:20.156Z,85.22
2015-11-08T02:25:33.406Z,85.13
2015-11-08T02:25:46.672Z,85.22
2015-11-08T02:25:59.906Z,85.5
2015-11-08T02:26:13.144Z,85.6
2015-11-08T02:26:26.363Z,85.69
2015-11-08T02:26:39.597Z,85.78
2015-11-08T02:26:52.675Z,85.69
2015-11-08T02:27:05.941Z,85.69
2015-11-08T02:27:19.194Z,85.6
2015-11-08T02:27:32.444Z,85.78
2015-11-08T02:27:45.725Z,85.97
2015-11-08T02:27:58.991Z,85.97
2015-11-08T02:28:12.209Z,85.88
2015-11-08T02:28:25.430Z,85.5
2015-11-08T02:28:38.664Z,85.22
2015-11-08T02:28:51.899Z,85.5
2015-11-08T02:29:05.118Z,84.94
2015-11-08T02:29:18.339Z,85.31
2015-11-08T02:29:31.574Z,85.03
2015-11-08T02:29:44.808Z,84.94
2015-11-08T02:29:58.074Z,85.13
2015-11-08T02:30:11.324Z,84.94
2015-11-08T02:30:24.546Z,85.03
2015-11-08T02:30:37.765Z,84.84
2015-11-08T02:30:50.984Z,84.84
2015-11-08T02:31:04.203Z,84.94
2015-11-08T02:31:17.423Z,85.03
2015-11-08T02:31:30.658Z,84.74
2015-11-08T02:31:43.908Z,84.84
2015-11-08T02:31:57.142Z,84.65
2015-11-08T02:32:10.408Z,84.84
2015-11-08T02:32:23.675Z,85.03
2015-11-08T02:32:36.957Z,84.94
2015-11-08T02:32:50.175Z,85.13
2015-11-08T02:33:03.410Z,84.94
2015-11-08T02:33:16.629Z,85.13
2015-11-08T02:33:29.836Z,85.03
2015-11-08T02:33:42.929Z,85.03
2015-11-08T02:33:56.164Z,85.03
2015-11-08T02:34:09.398Z,84.55
2015-11-08T02:34:22.650Z,84.55
2015-11-08T02:34:35.916Z,84.55
2015-11-08T02:34:49.181Z,84.27
2015-11-08T02:35:02.416Z,84.46
2015-11-08T02:35:15.635Z,84.08
2015-11-08T02:35:28.871Z,83.98
2015-11-08T02:35:42.074Z,84.17
2015-11-08T02:35:55.308Z,83.61
2015-11-08T02:36:08.371Z,83.51
2015-11-08T02:36:21.608Z,82.94
2015-11-08T02:36:34.843Z,83.32
2015-11-08T02:36:48.108Z,82.56
2015-11-08T02:37:01.358Z,82.66
2015-11-08T02:37:14.624Z,82.56
2015-11-08T02:37:27.861Z,82.56
2015-11-08T02:37:41.080Z,82.75
2015-11-08T02:37:54.314Z,83.13
2015-11-08T02:38:07.549Z,82.94
2015-11-08T02:38:20.768Z,82.94
2015-11-08T02:38:33.989Z,82.94
2015-11-08T02:38:47.224Z,83.04
2015-11-08T02:39:00.474Z,83.04
2015-11-08T02:39:13.724Z,83.42
2015-11-08T02:39:26.945Z,83.61
2015-11-08T02:39:40.164Z,83.98
2015-11-08T02:39:53.383Z,83.89
2015-11-08T02:40:06.602Z,84.17
2015-11-08T02:40:19.852Z,84.08
2015-11-08T02:40:33.089Z,84.55
2015-11-08T02:40:46.355Z,84.08
2015-11-08T02:40:59.605Z,84.36
2015-11-08T02:41:12.823Z,84.36
2015-11-08T02:41:26.060Z,84.55
2015-11-08T02:41:39.279Z,84.94
2015-11-08T02:41:52.513Z,84.94
2015-11-08T02:42:05.747Z,84.65
2015-11-08T02:42:18.997Z,85.22
2015-11-08T02:42:32.250Z,85.5
2015-11-08T02:42:45.516Z,85.78
2015-11-08T02:42:58.735Z,85.69
2015-11-08T02:43:11.953Z,85.78
2015-11-08T02:43:25.172Z,85.88
2015-11-08T02:43:38.393Z,86.35
2015-11-08T02:43:51.631Z,86.35
2015-11-08T02:44:04.850Z,86.26
2015-11-08T02:44:18.116Z,86.35
2015-11-08T02:44:31.354Z,86.55
2015-11-08T02:44:44.620Z,86.26
2015-11-08T02:44:57.885Z,86.26
2015-11-08T02:45:11.104Z,86.55
2015-11-08T02:45:24.327Z,86.35
2015-11-08T02:45:37.579Z,86.64
2015-11-08T02:45:50.797Z,86.74
2015-11-08T02:46:04.016Z,86.83
2015-11-08T02:46:17.235Z,86.93
2015-11-08T02:46:30.488Z,86.93
2015-11-08T02:46:43.707Z,86.93
2015-11-08T02:46:56.972Z,86.64
2015-11-08T02:47:10.207Z,86.93
2015-11-08T02:47:23.457Z,87.02
2015-11-08T02:47:36.647Z,86.64
2015-11-08T02:47:49.881Z,86.93
2015-11-08T02:48:03.085Z,86.93
2015-11-08T02:48:16.303Z,87.12
2015-11-08T02:48:29.538Z,87.3
2015-11-08T02:48:42.758Z,87.59
2015-11-08T02:48:56.008Z,88.16
2015-11-08T02:49:09.243Z,88.44
2015-11-08T02:49:22.508Z,88.35
2015-11-08T02:49:35.761Z,88.63
2015-11-08T02:49:49.027Z,89.11
2015-11-08T02:50:02.230Z,88.82
2015-11-08T02:50:15.449Z,88.63
2015-11-08T02:50:28.683Z,88.54
2015-11-08T02:50:41.921Z,88.92
2015-11-08T02:50:55.139Z,89.01
2015-11-08T02:51:08.358Z,88.73